Time;durP1;ratioP1;P1;durP2;ratioP2;P2;SDS_P1;SDS_P2;PMS_P1;PMS_P2;Temp;Humidity;BMP_temperature;BMP_pressure;BME280_temperature;BME280_humidity;BME280_pressure;Samples;Min_cycle;Max_cycle;Signal;HPM_P1;HPM_P2
2021/09/18 00:00:23;;;;;;;14.85;10.75;;;28.10;99.90;;;;;;4191126;28;20048;-69
2021/09/18 00:02:28;;;;;;;11.82;10.25;;;28.10;99.90;;;;;;4185594;28;20592;-69
2021/09/18 00:04:34;;;;;;;11.10;10.00;;;28.10;99.90;;;;;;4190970;28;20503;-70
2021/09/18 00:06:38;;;;;;;11.40;9.73;;;28.10;99.90;;;;;;4195284;28;20048;-68
2021/09/18 00:08:43;;;;;;;10.80;9.38;;;27.90;99.90;;;;;;4194656;28;20048;-69
2021/09/18 00:10:48;;;;;;;10.48;9.38;;;28.10;99.90;;;;;;4195418;28;20406;-69
2021/09/18 00:12:52;;;;;;;12.88;9.20;;;28.10;99.90;;;;;;4195733;28;20040;-70
2021/09/18 00:14:56;;;;;;;10.75;9.18;;;28.20;99.90;;;;;;4195437;28;20041;-69
2021/09/18 00:17:01;;;;;;;10.60;9.60;;;28.40;99.90;;;;;;4195009;28;20212;-70
2021/09/18 00:19:06;;;;;;;11.80;9.82;;;28.30;99.90;;;;;;4195497;28;20080;-68
2021/09/18 00:21:11;;;;;;;9.75;8.77;;;28.30;99.90;;;;;;4194979;28;20055;-69
2021/09/18 00:23:15;;;;;;;10.68;9.57;;;28.40;99.90;;;;;;4191139;28;20064;-70
2021/09/18 00:25:20;;;;;;;14.45;10.20;;;28.40;99.90;;;;;;4190836;28;20561;-69
2021/09/18 00:27:24;;;;;;;12.10;10.90;;;28.40;99.90;;;;;;4193668;28;20045;-70
2021/09/18 00:29:29;;;;;;;9.85;8.90;;;28.30;99.90;;;;;;4188654;28;20037;-69
2021/09/18 00:31:33;;;;;;;11.40;8.80;;;28.30;99.90;;;;;;4194394;28;20502;-69
2021/09/18 00:33:38;;;;;;;9.18;8.27;;;28.40;99.90;;;;;;4194146;28;20048;-70
2021/09/18 00:35:43;;;;;;;9.27;7.90;;;28.40;99.90;;;;;;4193252;28;20033;-70
2021/09/18 00:37:47;;;;;;;9.48;8.55;;;28.50;99.90;;;;;;4219704;28;20055;-69
2021/09/18 00:39:52;;;;;;;9.27;8.48;;;28.60;99.90;;;;;;4185296;28;20058;-70
2021/09/18 00:41:56;;;;;;;11.65;8.82;;;28.60;99.90;;;;;;4184944;28;20098;-69
2021/09/18 00:44:00;;;;;;;11.30;8.68;;;28.60;99.90;;;;;;4175669;28;20056;-70
2021/09/18 00:46:05;;;;;;;13.82;9.68;;;28.60;99.90;;;;;;4173588;28;20060;-71
2021/09/18 00:48:10;;;;;;;11.40;9.25;;;28.60;99.90;;;;;;4192980;28;20777;-70
2021/09/18 00:50:14;;;;;;;11.02;8.60;;;28.60;99.90;;;;;;4177039;28;20052;-69
2021/09/18 00:52:21;;;;;;;11.25;10.05;;;28.60;99.90;;;;;;4192359;28;20094;-71
2021/09/18 00:54:26;;;;;;;11.70;10.27;;;28.50;99.90;;;;;;4194504;28;20390;-70
2021/09/18 00:56:31;;;;;;;11.38;10.18;;;28.20;99.90;;;;;;4176996;28;20049;-70
2021/09/18 00:58:35;;;;;;;10.60;8.95;;;28.30;99.90;;;;;;4194648;28;20047;-69
2021/09/18 01:00:40;;;;;;;12.10;10.27;;;28.10;99.90;;;;;;4192889;28;20458;-69
2021/09/18 01:02:45;;;;;;;10.38;9.27;;;28.30;99.90;;;;;;4192478;28;20384;-70
2021/09/18 01:04:53;;;;;;;10.40;9.40;;;28.30;99.90;;;;;;4197603;28;20105;-70
2021/09/18 01:06:58;;;;;;;11.23;9.30;;;28.40;99.90;;;;;;4192154;28;20063;-70
2021/09/18 01:09:04;;;;;;;10.48;9.32;;;28.40;99.90;;;;;;4196756;28;20482;-69
2021/09/18 01:11:08;;;;;;;10.15;8.80;;;28.50;99.90;;;;;;4197337;28;20164;-69
2021/09/18 01:13:18;;;;;;;10.45;9.40;;;28.60;99.90;;;;;;4196527;28;20128;-69
2021/09/18 01:15:23;;;;;;;14.30;10.25;;;28.30;99.90;;;;;;4194290;28;20502;-70
2021/09/18 01:17:27;;;;;;;11.70;9.82;;;28.10;99.90;;;;;;4197582;28;20411;-70
2021/09/18 01:19:32;;;;;;;11.00;8.77;;;28.20;99.90;;;;;;4197601;28;20072;-69
2021/09/18 01:21:37;;;;;;;10.60;9.60;;;28.20;99.90;;;;;;4196273;28;20507;-70
2021/09/18 01:23:42;;;;;;;10.50;9.35;;;28.40;99.90;;;;;;4193545;28;20040;-70
2021/09/18 01:25:47;;;;;;;15.35;10.68;;;28.50;99.90;;;;;;4196001;28;20068;-70
2021/09/18 01:27:52;;;;;;;13.43;9.32;;;28.50;99.90;;;;;;4177122;28;20454;-71
2021/09/18 01:29:57;;;;;;;13.02;9.38;;;28.60;99.90;;;;;;4196156;28;20430;-69
2021/09/18 01:32:03;;;;;;;10.88;9.73;;;28.70;99.90;;;;;;4197644;28;20142;-70
2021/09/18 01:34:08;;;;;;;10.63;9.52;;;28.50;99.90;;;;;;4194234;28;20082;-70
2021/09/18 01:36:13;;;;;;;10.45;9.35;;;28.50;99.90;;;;;;4196157;28;20044;-70
2021/09/18 01:38:18;;;;;;;10.68;9.00;;;28.60;99.90;;;;;;4195109;28;20076;-71
2021/09/18 01:40:25;;;;;;;9.93;8.93;;;28.80;99.90;;;;;;4195132;28;20071;-69
2021/09/18 01:42:30;;;;;;;11.35;10.20;;;28.80;99.90;;;;;;4177782;28;20041;-69
2021/09/18 01:44:35;;;;;;;11.95;9.55;;;28.90;99.90;;;;;;4196026;28;20639;-69
2021/09/18 01:46:40;;;;;;;10.63;8.63;;;29.00;99.90;;;;;;4196863;28;20053;-70
2021/09/18 01:48:45;;;;;;;17.55;10.00;;;29.00;99.90;;;;;;4194860;28;20041;-70
2021/09/18 01:50:59;;;;;;;11.52;9.38;;;29.10;99.90;;;;;;4194940;28;20028;-69
2021/09/18 01:53:07;;;;;;;10.88;9.77;;;28.90;99.90;;;;;;4195876;28;20036;-69
2021/09/18 01:55:11;;;;;;;11.77;10.52;;;28.90;99.90;;;;;;4195202;28;20060;-69
2021/09/18 01:57:16;;;;;;;11.27;8.70;;;28.90;99.90;;;;;;4196769;28;20053;-69
2021/09/18 01:59:21;;;;;;;12.25;10.63;;;29.00;99.90;;;;;;4179058;28;20056;-71
2021/09/18 02:01:26;;;;;;;11.38;10.13;;;29.00;99.90;;;;;;4195988;28;20052;-70
2021/09/18 02:03:32;;;;;;;12.73;9.70;;;29.00;99.90;;;;;;4190267;28;20040;-71
2021/09/18 02:05:37;;;;;;;13.10;9.88;;;29.00;99.90;;;;;;4191935;28;20044;-70
2021/09/18 02:07:41;;;;;;;11.60;10.23;;;29.00;99.90;;;;;;4194585;28;20037;-67
2021/09/18 02:09:46;;;;;;;10.20;9.30;;;29.00;99.90;;;;;;4195259;28;20040;-71
2021/09/18 02:11:50;;;;;;;11.50;10.27;;;28.90;99.90;;;;;;4195458;28;20050;-71
2021/09/18 02:13:55;;;;;;;11.70;10.50;;;28.70;99.90;;;;;;4195816;28;20719;-70
2021/09/18 02:15:59;;;;;;;11.70;10.45;;;28.80;99.90;;;;;;4195996;28;20086;-70
2021/09/18 02:18:05;;;;;;;11.70;10.50;;;28.80;99.90;;;;;;4197236;28;20072;-69
2021/09/18 02:20:12;;;;;;;10.82;9.13;;;28.80;99.90;;;;;;4196771;28;20488;-70
2021/09/18 02:22:17;;;;;;;12.52;10.35;;;28.80;99.90;;;;;;4195656;28;20047;-69
2021/09/18 02:24:21;;;;;;;11.00;9.88;;;29.00;99.90;;;;;;4197036;28;20056;-69
2021/09/18 02:26:25;;;;;;;9.68;8.68;;;28.90;99.90;;;;;;4195403;28;20087;-70
2021/09/18 02:28:30;;;;;;;13.10;9.68;;;29.10;99.90;;;;;;4195925;28;20045;-70
2021/09/18 02:30:35;;;;;;;10.30;8.10;;;29.30;99.90;;;;;;4195511;28;20048;-70
2021/09/18 02:32:40;;;;;;;9.40;7.95;;;29.50;99.90;;;;;;4179475;28;20087;-68
2021/09/18 02:34:45;;;;;;;9.43;8.20;;;29.50;99.90;;;;;;4195536;28;20052;-69
2021/09/18 02:36:49;;;;;;;9.15;7.70;;;29.50;99.90;;;;;;4196659;28;20048;-67
2021/09/18 02:38:54;;;;;;;10.00;8.73;;;29.60;99.90;;;;;;4195675;28;20075;-70
2021/09/18 02:40:59;;;;;;;9.27;8.23;;;29.40;99.90;;;;;;4194808;28;20051;-73
2021/09/18 02:43:04;;;;;;;9.77;8.75;;;29.40;99.90;;;;;;4194564;28;20383;-70
2021/09/18 02:45:09;;;;;;;10.07;8.45;;;29.20;99.90;;;;;;4179497;28;20055;-70
2021/09/18 02:47:14;;;;;;;11.68;9.20;;;29.10;99.90;;;;;;4195295;28;20055;-69
2021/09/18 02:49:18;;;;;;;12.95;8.05;;;29.10;99.90;;;;;;4195819;28;20053;-70
2021/09/18 02:51:23;;;;;;;10.07;7.80;;;29.30;99.90;;;;;;4184923;28;20055;-70
2021/09/18 02:53:28;;;;;;;9.43;7.05;;;29.60;99.90;;;;;;4144678;28;20077;-70
2021/09/18 02:55:33;;;;;;;10.05;7.53;;;29.70;99.90;;;;;;4196215;28;20442;-71
2021/09/18 02:57:37;;;;;;;10.73;8.13;;;29.70;99.90;;;;;;4162773;28;20045;-69
2021/09/18 02:59:42;;;;;;;13.63;8.63;;;29.30;99.90;;;;;;4195343;28;20386;-71
2021/09/18 03:01:47;;;;;;;9.10;8.18;;;29.20;99.90;;;;;;4194906;28;20044;-71
2021/09/18 03:03:52;;;;;;;11.40;8.52;;;29.30;99.90;;;;;;4195987;28;20142;-69
2021/09/18 03:05:56;;;;;;;9.00;8.10;;;29.30;99.90;;;;;;4195387;28;20415;-71
2021/09/18 03:08:01;;;;;;;9.57;8.20;;;29.40;99.90;;;;;;4178717;28;20068;-70
2021/09/18 03:10:06;;;;;;;12.18;8.52;;;29.50;99.90;;;;;;4196444;28;20048;-69
2021/09/18 03:12:10;;;;;;;10.82;7.57;;;29.60;99.90;;;;;;4194142;28;20047;-71
2021/09/18 03:14:15;;;;;;;10.80;7.80;;;29.60;99.90;;;;;;4194633;28;20412;-71
2021/09/18 03:16:19;;;;;;;9.85;8.23;;;29.60;99.90;;;;;;4189216;28;20094;-70
2021/09/18 03:18:24;;;;;;;9.88;7.60;;;29.90;99.90;;;;;;4194997;28;20098;-70
2021/09/18 03:20:29;;;;;;;10.05;7.90;;;30.00;99.90;;;;;;4195377;28;20054;-69
2021/09/18 03:22:33;;;;;;;9.43;8.50;;;30.10;99.90;;;;;;4194935;28;20550;-69
2021/09/18 03:24:38;;;;;;;9.65;8.70;;;30.10;99.90;;;;;;4194608;28;20066;-69
2021/09/18 03:26:44;;;;;;;9.30;8.20;;;30.10;99.90;;;;;;4194944;28;20333;-70
2021/09/18 03:28:50;;;;;;;11.55;9.32;;;30.00;99.90;;;;;;4195130;28;20045;-69
2021/09/18 03:30:55;;;;;;;9.68;8.77;;;29.90;99.90;;;;;;4196070;28;20127;-70
2021/09/18 03:32:59;;;;;;;11.05;8.82;;;29.70;99.90;;;;;;4194653;28;20067;-71
2021/09/18 03:35:05;;;;;;;8.95;7.88;;;29.70;99.90;;;;;;4195872;28;20526;-70
2021/09/18 03:37:10;;;;;;;8.80;7.90;;;30.00;99.90;;;;;;4195295;28;20577;-69
2021/09/18 03:39:15;;;;;;;9.85;8.85;;;30.20;99.90;;;;;;4178794;28;20088;-70
2021/09/18 03:41:19;;;;;;;9.48;8.57;;;30.20;99.90;;;;;;4196187;28;20158;-70
2021/09/18 03:43:24;;;;;;;9.48;7.65;;;30.20;99.90;;;;;;4195826;28;20068;-70
2021/09/18 03:45:28;;;;;;;8.45;7.63;;;30.30;99.90;;;;;;4195971;28;20565;-70
2021/09/18 03:47:33;;;;;;;8.70;7.80;;;30.40;99.90;;;;;;4195938;28;20049;-70
2021/09/18 03:49:37;;;;;;;9.25;8.30;;;30.30;99.90;;;;;;4195834;28;20040;-71
2021/09/18 03:51:42;;;;;;;10.00;7.97;;;30.10;99.90;;;;;;4193676;28;20040;-69
2021/09/18 03:53:46;;;;;;;8.25;7.38;;;30.20;99.90;;;;;;4192165;28;20493;-69
2021/09/18 03:55:51;;;;;;;8.57;7.78;;;30.30;99.90;;;;;;4192709;28;20032;-69
2021/09/18 03:57:56;;;;;;;8.68;7.72;;;30.60;99.90;;;;;;4192605;28;20049;-70
2021/09/18 04:00:00;;;;;;;10.32;7.90;;;30.80;99.90;;;;;;4194098;28;20085;-69
2021/09/18 04:02:07;;;;;;;7.82;7.07;;;30.80;99.90;;;;;;4193914;28;20040;-68
2021/09/18 04:04:11;;;;;;;7.60;6.65;;;30.90;99.90;;;;;;4192703;28;20040;-69
2021/09/18 04:06:16;;;;;;;7.63;6.72;;;30.90;99.90;;;;;;4191801;28;20053;-70
2021/09/18 04:08:21;;;;;;;8.52;7.35;;;30.90;99.90;;;;;;4192362;28;20033;-69
2021/09/18 04:10:25;;;;;;;7.60;6.80;;;30.80;99.90;;;;;;4193190;28;20045;-70
2021/09/18 04:12:30;;;;;;;7.15;6.45;;;30.90;99.90;;;;;;4192115;28;20033;-69
2021/09/18 04:14:36;;;;;;;7.95;7.20;;;31.00;99.90;;;;;;4193303;28;20044;-69
2021/09/18 04:16:40;;;;;;;7.40;6.70;;;31.00;99.90;;;;;;4193561;28;20052;-70
2021/09/18 04:18:45;;;;;;;7.35;6.65;;;31.10;99.90;;;;;;4194591;28;20175;-71
2021/09/18 04:20:50;;;;;;;6.70;6.10;;;31.10;99.90;;;;;;4192746;28;20075;-70
2021/09/18 04:22:55;;;;;;;7.63;6.82;;;31.10;99.90;;;;;;4193259;28;20060;-71
2021/09/18 04:25:00;;;;;;;7.47;6.28;;;31.20;99.90;;;;;;4192154;28;20588;-70
2021/09/18 04:27:04;;;;;;;8.48;6.60;;;31.20;99.90;;;;;;4175912;28;20095;-70
2021/09/18 04:29:09;;;;;;;11.07;7.15;;;31.10;99.90;;;;;;4193610;28;20494;-71
2021/09/18 04:31:13;;;;;;;7.25;6.32;;;31.10;99.90;;;;;;4193548;28;20103;-71
2021/09/18 04:33:18;;;;;;;10.32;6.60;;;31.20;99.90;;;;;;4191680;28;20067;-71
2021/09/18 04:35:23;;;;;;;7.60;6.57;;;31.00;99.90;;;;;;4191560;28;20049;-71
2021/09/18 04:37:27;;;;;;;7.57;5.55;;;30.90;99.90;;;;;;4194755;28;20070;-71
2021/09/18 04:39:32;;;;;;;8.70;6.05;;;30.80;99.90;;;;;;4195911;28;20048;-71
2021/09/18 04:41:36;;;;;;;6.55;5.60;;;30.80;99.90;;;;;;4179075;28;20488;-72
2021/09/18 04:43:41;;;;;;;5.97;5.45;;;31.00;99.90;;;;;;4195247;28;20118;-72
2021/09/18 04:45:46;;;;;;;6.38;5.63;;;31.10;99.90;;;;;;4195040;28;20040;-71
2021/09/18 04:47:50;;;;;;;6.70;5.72;;;31.30;99.90;;;;;;4162542;28;20508;-71
2021/09/18 04:49:55;;;;;;;6.88;6.18;;;31.40;99.90;;;;;;4195221;28;20048;-72
2021/09/18 04:52:00;;;;;;;6.57;5.80;;;31.40;99.90;;;;;;4194982;28;20396;-71
2021/09/18 04:54:05;;;;;;;5.95;5.38;;;31.50;99.90;;;;;;4196849;28;20080;-71
2021/09/18 04:56:09;;;;;;;5.53;4.75;;;31.60;99.90;;;;;;4194354;28;20033;-70
2021/09/18 04:58:14;;;;;;;6.18;4.88;;;31.60;99.90;;;;;;4196460;28;20153;-71
2021/09/18 05:00:18;;;;;;;5.40;4.90;;;31.70;99.90;;;;;;4195211;28;20045;-71
2021/09/18 05:02:23;;;;;;;6.20;5.22;;;31.60;99.90;;;;;;4197373;28;20048;-72
2021/09/18 05:04:28;;;;;;;5.80;5.22;;;31.60;99.90;;;;;;4181274;28;20061;-72
2021/09/18 05:06:35;;;;;;;6.72;5.15;;;31.60;99.90;;;;;;4198195;28;20076;-71
2021/09/18 05:08:40;;;;;;;5.25;4.85;;;31.70;99.90;;;;;;4181038;28;20131;-71
2021/09/18 05:10:45;;;;;;;6.78;4.95;;;31.70;99.90;;;;;;4197263;28;20037;-71
2021/09/18 05:12:49;;;;;;;5.60;5.10;;;31.70;99.90;;;;;;4197047;28;20040;-71
2021/09/18 05:14:54;;;;;;;5.43;4.85;;;31.70;99.90;;;;;;4181017;28;20052;-71
2021/09/18 05:16:58;;;;;;;6.63;4.75;;;31.60;99.90;;;;;;4191633;28;20498;-71
2021/09/18 05:19:02;;;;;;;5.20;4.70;;;31.50;99.90;;;;;;4197470;28;20064;-71
2021/09/18 05:21:07;;;;;;;6.13;4.72;;;31.60;99.90;;;;;;4180837;28;20063;-71
2021/09/18 05:23:12;;;;;;;4.70;4.20;;;31.80;99.90;;;;;;4180573;28;20086;-71
2021/09/18 05:25:16;;;;;;;4.40;4.10;;;31.90;99.90;;;;;;4197835;28;20431;-71
2021/09/18 05:27:21;;;;;;;5.05;3.85;;;32.00;99.90;;;;;;4194119;28;20052;-71
2021/09/18 05:29:25;;;;;;;5.97;4.28;;;32.10;99.90;;;;;;4197079;28;20101;-71
2021/09/18 05:31:30;;;;;;;6.15;3.97;;;32.20;99.90;;;;;;4197061;28;20052;-71
2021/09/18 05:33:34;;;;;;;5.03;4.07;;;32.30;99.90;;;;;;4180396;28;20134;-70
2021/09/18 05:35:39;;;;;;;5.07;4.15;;;32.30;99.90;;;;;;4197849;28;20045;-70
2021/09/18 05:37:44;;;;;;;5.63;4.15;;;32.50;99.90;;;;;;4180364;28;20099;-70
2021/09/18 05:39:49;;;;;;;4.57;4.15;;;32.50;99.90;;;;;;4165129;28;20548;-71
2021/09/18 05:41:54;;;;;;;5.10;4.38;;;32.50;99.90;;;;;;4197800;28;20068;-71
2021/09/18 05:43:59;;;;;;;5.20;3.90;;;32.60;99.90;;;;;;4197992;28;20090;-71
2021/09/18 05:46:03;;;;;;;4.75;3.92;;;32.70;99.90;;;;;;4197871;28;20045;-72
2021/09/18 05:48:09;;;;;;;4.03;3.65;;;32.70;99.90;;;;;;4180159;28;20041;-71
2021/09/18 05:50:14;;;;;;;3.55;3.13;;;32.70;99.90;;;;;;4179825;28;20427;-72
2021/09/18 05:52:18;;;;;;;3.58;3.28;;;32.70;99.90;;;;;;4178926;28;20464;-70
2021/09/18 05:54:24;;;;;;;7.88;3.63;;;32.80;99.90;;;;;;4197089;28;20131;-70
2021/09/18 05:56:28;;;;;;;6.32;3.67;;;32.80;99.90;;;;;;4196156;28;20506;-71
2021/09/18 05:58:35;;;;;;;5.05;3.15;;;32.80;99.90;;;;;;4164663;28;20117;-72
2021/09/18 06:00:40;;;;;;;3.60;3.30;;;32.90;99.90;;;;;;4164550;28;20523;-72
2021/09/18 06:02:45;;;;;;;3.33;3.03;;;32.90;99.90;;;;;;4180367;28;20403;-71
2021/09/18 06:04:51;;;;;;;4.50;3.03;;;32.90;99.90;;;;;;4197910;28;20048;-71
2021/09/18 06:06:55;;;;;;;6.13;3.50;;;32.90;99.90;;;;;;4179948;28;20398;-72
2021/09/18 06:09:00;;;;;;;4.22;3.17;;;33.00;99.90;;;;;;4194747;28;20064;-72
2021/09/18 06:11:04;;;;;;;3.17;2.70;;;33.00;99.90;;;;;;4177441;28;20507;-71
2021/09/18 06:13:09;;;;;;;4.38;3.63;;;33.00;99.90;;;;;;4179038;28;20041;-71
2021/09/18 06:15:14;;;;;;;5.00;3.10;;;33.00;99.90;;;;;;4196994;28;20040;-72
2021/09/18 06:17:19;;;;;;;4.75;3.13;;;33.00;99.90;;;;;;4163428;28;20423;-72
2021/09/18 06:19:26;;;;;;;3.42;2.80;;;33.00;99.90;;;;;;4178439;28;20086;-71
2021/09/18 06:21:31;;;;;;;4.72;3.10;;;33.00;99.90;;;;;;4179487;28;20137;-72
2021/09/18 06:23:37;;;;;;;3.40;2.90;;;32.90;99.90;;;;;;4197177;28;20048;-73
2021/09/18 06:25:42;;;;;;;4.20;3.13;;;32.90;99.90;;;;;;4179070;28;20136;-72
2021/09/18 06:27:46;;;;;;;3.72;3.08;;;33.00;99.90;;;;;;4195065;28;20040;-71
2021/09/18 06:29:51;;;;;;;3.67;3.28;;;33.10;99.90;;;;;;4212046;28;20055;-72
2021/09/18 06:31:55;;;;;;;3.17;2.88;;;33.10;99.90;;;;;;4185805;28;20044;-72
2021/09/18 06:34:00;;;;;;;4.28;2.90;;;33.10;99.90;;;;;;4179195;28;20438;-71
2021/09/18 06:36:05;;;;;;;3.55;2.95;;;33.10;99.90;;;;;;4193771;28;20053;-72
2021/09/18 06:38:11;;;;;;;3.55;2.65;;;33.10;99.90;;;;;;4195586;28;20044;-73
2021/09/18 06:40:17;;;;;;;5.57;2.78;;;33.10;99.90;;;;;;4195828;28;20049;-74
2021/09/18 06:42:24;;;;;;;3.22;2.75;;;33.10;99.90;;;;;;4180470;28;20063;-74
2021/09/18 06:44:29;;;;;;;4.40;2.80;;;33.20;99.90;;;;;;4197963;28;20431;-73
2021/09/18 06:46:34;;;;;;;5.60;2.33;;;33.20;99.90;;;;;;4197399;28;20112;-72
2021/09/18 06:48:39;;;;;;;3.40;2.72;;;33.30;99.90;;;;;;4176872;28;20076;-72
2021/09/18 06:50:44;;;;;;;2.88;2.67;;;33.40;99.90;;;;;;4196288;28;20438;-71
2021/09/18 06:52:49;;;;;;;3.13;2.45;;;33.40;99.90;;;;;;4193781;28;20072;-72
2021/09/18 06:54:54;;;;;;;2.97;2.67;;;33.40;99.90;;;;;;4196185;28;20112;-73
2021/09/18 06:56:58;;;;;;;3.28;2.63;;;33.40;99.90;;;;;;4195769;28;20033;-72
2021/09/18 06:59:03;;;;;;;2.55;2.35;;;33.40;99.60;;;;;;4178526;28;20588;-72
2021/09/18 07:01:08;;;;;;;2.63;2.20;;;33.50;99.30;;;;;;4178480;28;20041;-72
2021/09/18 07:03:14;;;;;;;2.67;2.47;;;33.50;99.30;;;;;;4211307;28;20068;-73
2021/09/18 07:05:19;;;;;;;4.05;2.88;;;33.50;99.50;;;;;;4194665;28;20048;-72
2021/09/18 07:07:28;;;;;;;3.53;2.40;;;33.50;99.30;;;;;;4194845;28;20135;-73
2021/09/18 07:09:32;;;;;;;3.67;2.60;;;33.50;98.40;;;;;;4179901;28;20041;-72
2021/09/18 07:11:39;;;;;;;3.75;2.83;;;33.60;98.20;;;;;;4193723;28;20052;-73
2021/09/18 07:13:43;;;;;;;7.68;2.80;;;33.50;97.80;;;;;;4195738;28;20032;-73
2021/09/18 07:15:52;;;;;;;5.25;2.80;;;33.40;98.30;;;;;;4195457;28;20151;-72
2021/09/18 07:17:57;;;;;;;3.53;2.60;;;33.40;99.00;;;;;;4194692;28;20037;-72
2021/09/18 07:20:02;;;;;;;2.70;2.50;;;33.40;99.30;;;;;;4193539;28;20057;-72
2021/09/18 07:22:07;;;;;;;3.70;2.80;;;33.50;99.10;;;;;;4195641;28;20441;-72
2021/09/18 07:24:12;;;;;;;2.70;2.50;;;33.50;98.80;;;;;;4193569;28;20055;-73
2021/09/18 07:26:21;;;;;;;3.17;2.72;;;33.50;98.50;;;;;;4194630;28;20040;-73
2021/09/18 07:28:26;;;;;;;2.70;2.22;;;33.50;98.50;;;;;;4195208;28;20048;-72
2021/09/18 07:30:31;;;;;;;2.85;2.60;;;33.50;97.50;;;;;;4196065;28;20039;-74
2021/09/18 07:32:36;;;;;;;2.80;2.50;;;33.60;97.80;;;;;;4195876;28;20066;-71
2021/09/18 07:34:41;;;;;;;3.22;2.33;;;33.50;97.90;;;;;;4193792;28;20127;-72
2021/09/18 07:36:45;;;;;;;3.47;2.60;;;33.60;98.30;;;;;;4184854;28;20304;-72
2021/09/18 07:38:50;;;;;;;4.43;3.00;;;33.60;98.60;;;;;;4192257;28;20063;-71
2021/09/18 07:40:56;;;;;;;4.43;2.83;;;33.70;98.80;;;;;;4194052;28;20040;-72
2021/09/18 07:43:01;;;;;;;3.25;2.85;;;33.80;98.60;;;;;;4176476;28;20056;-72
2021/09/18 07:45:06;;;;;;;3.28;2.90;;;33.70;98.70;;;;;;4194351;28;20041;-71
2021/09/18 07:47:11;;;;;;;2.78;2.33;;;33.80;98.00;;;;;;4178004;28;20067;-72
2021/09/18 07:49:16;;;;;;;3.25;2.50;;;33.80;98.10;;;;;;4194427;28;20071;-71
2021/09/18 07:51:22;;;;;;;3.22;2.28;;;33.70;97.90;;;;;;4192221;28;20065;-72
2021/09/18 07:53:26;;;;;;;3.38;2.65;;;33.80;97.90;;;;;;4195464;28;20036;-72
2021/09/18 07:55:32;;;;;;;4.88;2.70;;;33.80;97.90;;;;;;4194393;28;20089;-71
2021/09/18 07:57:52;;;;;;;4.57;2.90;;;33.80;97.80;;;;;;4194335;28;20487;-72
2021/09/18 07:59:57;;;;;;;3.72;2.25;;;33.80;97.50;;;;;;4192022;28;20058;-74
2021/09/18 08:02:02;;;;;;;3.88;2.85;;;33.90;96.40;;;;;;4194920;28;20056;-70
2021/09/18 08:04:12;;;;;;;3.83;2.60;;;33.90;97.20;;;;;;4193691;28;20049;-72
2021/09/18 08:06:16;;;;;;;2.95;2.67;;;33.80;96.80;;;;;;4193437;28;20461;-72
2021/09/18 08:08:22;;;;;;;3.92;2.55;;;33.80;96.30;;;;;;4195398;28;20053;-71
2021/09/18 08:10:26;;;;;;;7.65;2.78;;;33.80;96.90;;;;;;4195644;28;20045;-72
2021/09/18 08:12:31;;;;;;;5.05;3.22;;;33.80;96.70;;;;;;4180021;28;20605;-74
2021/09/18 08:14:36;;;;;;;4.25;3.03;;;33.70;96.90;;;;;;4195778;28;20442;-72
2021/09/18 08:16:41;;;;;;;3.35;2.70;;;33.80;96.80;;;;;;4199185;28;20411;-72
2021/09/18 08:18:45;;;;;;;3.00;2.70;;;33.80;96.80;;;;;;4181194;28;20048;-71
2021/09/18 08:20:50;;;;;;;4.60;2.80;;;33.80;96.90;;;;;;4195434;28;20064;-71
2021/09/18 08:22:54;;;;;;;3.83;2.95;;;33.80;96.90;;;;;;4181045;28;20075;-73
2021/09/18 08:24:59;;;;;;;2.95;2.63;;;33.80;96.70;;;;;;4197427;28;20068;-73
2021/09/18 08:27:04;;;;;;;3.97;2.63;;;33.80;96.50;;;;;;4198767;28;20048;-72
2021/09/18 08:29:09;;;;;;;5.13;2.58;;;33.80;96.20;;;;;;4198591;28;20140;-74
2021/09/18 08:31:13;;;;;;;4.43;2.90;;;33.80;95.50;;;;;;4199813;28;20032;-74
2021/09/18 08:33:18;;;;;;;3.22;2.22;;;33.80;95.60;;;;;;4199855;28;20476;-73
2021/09/18 08:35:23;;;;;;;5.97;2.80;;;33.80;95.70;;;;;;4199648;28;20101;-73
2021/09/18 08:37:29;;;;;;;5.25;4.63;;;33.80;95.90;;;;;;4197933;28;20465;-73
2021/09/18 08:39:35;;;;;;;11.75;8.68;;;33.80;95.70;;;;;;4198735;28;20706;-74
2021/09/18 08:41:45;;;;;;;8.07;6.65;;;33.80;95.30;;;;;;4175698;28;20059;-73
2021/09/18 08:43:49;;;;;;;7.10;4.93;;;33.80;95.60;;;;;;4180240;28;20049;-74
2021/09/18 08:45:54;;;;;;;5.65;3.90;;;33.80;95.50;;;;;;4178451;28;20052;-72
2021/09/18 08:48:05;;;;;;;3.35;3.00;;;33.80;95.40;;;;;;4164417;28;20604;-72
2021/09/18 08:50:14;;;;;;;2.70;2.25;;;33.80;95.30;;;;;;4163010;28;20068;-72
2021/09/18 08:52:19;;;;;;;3.50;2.95;;;33.80;95.40;;;;;;4146691;28;20080;-73
2021/09/18 08:54:23;;;;;;;5.38;2.95;;;33.70;95.10;;;;;;4179666;28;20045;-72
2021/09/18 08:56:28;;;;;;;10.30;9.13;;;33.60;95.20;;;;;;4145151;28;20416;-73
2021/09/18 08:58:33;;;;;;;11.65;6.50;;;33.60;95.10;;;;;;4163885;28;20507;-72
2021/09/18 09:00:41;;;;;;;5.35;4.00;;;33.70;94.50;;;;;;4163285;28;20060;-72
2021/09/18 09:02:52;;;;;;;6.00;4.45;;;33.70;95.60;;;;;;4179918;28;20045;-72
2021/09/18 09:05:08;;;;;;;5.03;3.72;;;33.70;95.00;;;;;;4146304;28;20193;-72
2021/09/18 09:07:16;;;;;;;4.10;2.80;;;33.70;95.00;;;;;;4176267;28;20040;-72
2021/09/18 09:09:20;;;;;;;3.25;2.45;;;33.70;94.20;;;;;;4147113;28;20050;-73
2021/09/18 09:11:30;;;;;;;5.97;2.60;;;33.70;93.70;;;;;;4156799;28;20100;-74
2021/09/18 09:13:34;;;;;;;3.25;2.45;;;33.70;94.40;;;;;;4187197;28;20526;-73
2021/09/18 09:15:39;;;;;;;3.58;2.47;;;33.70;93.90;;;;;;4196598;28;20051;-72
2021/09/18 09:17:51;;;;;;;3.00;2.70;;;33.60;93.60;;;;;;4193725;28;20052;-72
2021/09/18 09:19:57;;;;;;;3.78;2.50;;;33.60;93.90;;;;;;4194175;28;20114;-73
2021/09/18 09:22:02;;;;;;;3.22;2.60;;;33.60;93.50;;;;;;4194145;28;20048;-73
2021/09/18 09:24:14;;;;;;;4.85;2.65;;;33.60;94.00;;;;;;4194039;28;20467;-73
2021/09/18 09:26:21;;;;;;;3.63;2.97;;;33.70;94.50;;;;;;4194535;28;20076;-73
2021/09/18 09:28:34;;;;;;;5.03;2.75;;;33.70;94.60;;;;;;4197388;28;20048;-73
2021/09/18 09:30:40;;;;;;;4.85;2.55;;;33.70;94.70;;;;;;4194941;28;20396;-72
2021/09/18 09:32:44;;;;;;;3.05;2.60;;;33.70;95.00;;;;;;4197594;28;20076;-71
2021/09/18 09:34:53;;;;;;;3.22;2.53;;;33.70;95.20;;;;;;4197189;28;20388;-71
2021/09/18 09:36:57;;;;;;;3.10;2.40;;;33.70;95.30;;;;;;4194549;28;20049;-71
2021/09/18 09:39:04;;;;;;;3.65;2.60;;;33.60;94.70;;;;;;4195738;28;20162;-70
2021/09/18 09:41:09;;;;;;;3.13;2.28;;;33.60;94.80;;;;;;4162086;28;20049;-72
2021/09/18 09:43:14;;;;;;;2.70;2.50;;;33.60;94.80;;;;;;4196014;28;20131;-71
2021/09/18 09:45:20;;;;;;;4.07;2.83;;;33.60;94.80;;;;;;4195633;28;20033;-71
2021/09/18 09:47:25;;;;;;;2.88;2.58;;;33.60;95.00;;;;;;4195691;28;20079;-71
2021/09/18 09:49:53;;;;;;;3.30;2.70;;;33.60;95.00;;;;;;4177422;28;20037;-71
2021/09/18 09:52:20;;;;;;;2.97;2.67;;;33.60;95.30;;;;;;4179139;28;20040;-70
2021/09/18 09:54:26;;;;;;;3.30;2.63;;;33.50;94.00;;;;;;4196074;28;20602;-72
2021/09/18 09:56:30;;;;;;;2.60;2.40;;;33.40;94.40;;;;;;4195457;28;20123;-72
2021/09/18 09:58:53;;;;;;;3.08;2.50;;;33.40;94.70;;;;;;4196793;28;20044;-71
2021/09/18 10:00:58;;;;;;;4.15;2.78;;;33.30;94.80;;;;;;4179360;28;20124;-72
2021/09/18 10:03:03;;;;;;;2.70;2.50;;;33.30;94.80;;;;;;4177812;28;20649;-73
2021/09/18 10:05:13;;;;;;;3.78;2.60;;;33.30;95.10;;;;;;4178697;28;20075;-72
2021/09/18 10:07:17;;;;;;;3.50;2.80;;;33.30;95.10;;;;;;4160599;28;20466;-72
2021/09/18 10:09:22;;;;;;;3.53;2.67;;;33.30;94.40;;;;;;4177376;28;20051;-72
2021/09/18 10:11:31;;;;;;;4.80;2.85;;;33.20;94.30;;;;;;4129096;28;20042;-71
2021/09/18 10:13:36;;;;;;;5.10;2.90;;;33.20;94.70;;;;;;4162546;28;20494;-71
2021/09/18 10:15:41;;;;;;;3.60;3.25;;;33.20;94.50;;;;;;4162085;28;20030;-71
2021/09/18 10:17:48;;;;;;;3.55;3.22;;;33.20;94.80;;;;;;4145625;28;20038;-72
2021/09/18 10:20:01;;;;;;;4.25;2.90;;;33.20;94.90;;;;;;4162592;28;20461;-72
2021/09/18 10:24:37;;;;;;;4.70;2.90;;;33.10;95.10;;;;;;4162859;28;20050;-72
2021/09/18 10:26:41;;;;;;;4.03;2.60;;;33.10;95.50;;;;;;4141226;28;20045;-72
2021/09/18 10:28:47;;;;;;;7.05;3.00;;;33.00;95.00;;;;;;4146035;28;20073;-72
2021/09/18 10:30:53;;;;;;;4.60;3.00;;;33.00;95.10;;;;;;4160634;28;20560;-71
2021/09/18 10:32:58;;;;;;;4.18;2.92;;;32.90;95.50;;;;;;4144098;28;20049;-76
2021/09/18 10:35:11;;;;;;;4.13;3.08;;;32.90;95.60;;;;;;4174716;28;20534;-73
2021/09/18 10:37:32;;;;;;;5.43;3.05;;;32.90;95.80;;;;;;4192796;28;20056;-73
2021/09/18 10:39:37;;;;;;;3.60;2.85;;;32.80;95.80;;;;;;4193482;28;20114;-71
2021/09/18 10:41:45;;;;;;;4.72;2.92;;;32.80;96.10;;;;;;4196279;28;20048;-72
2021/09/18 10:43:56;;;;;;;3.45;2.72;;;32.80;95.90;;;;;;4211773;28;20075;-73
2021/09/18 10:46:03;;;;;;;2.60;2.40;;;32.70;96.00;;;;;;4194550;28;20462;-73
2021/09/18 10:48:08;;;;;;;3.40;3.10;;;32.70;96.20;;;;;;4194954;28;20037;-70
2021/09/18 10:50:22;;;;;;;3.58;2.95;;;32.70;96.30;;;;;;4175774;28;20037;-73
2021/09/18 10:52:33;;;;;;;4.38;3.10;;;32.70;96.30;;;;;;4176993;28;20167;-71